Airfield :
LOGIN :

Register | Disclaimer

   EN    FR    IT 

 










Legend :    VFR   Marginal VFR   IFR   Intensive IFR   Very Intensive IFR
Visi :
Ceiling :
>= 8 km
>= 3000ft
5 to 8 km
1000 to 3000 ft
1500m to 5 km
500 to 1000 ft
800 to 1500m
200 to 500 ft
< 800m
< 200 ft
Symbols :   Thunderstorms  Fog  Heavy snow  Heavy precipitations  Wind > 20 kt
SIGMETs :     Misc.  Thunderstorms  Icing  Turbulence  Mountain Waves  Volcanic Ashes







- Airport Elevation : 659 ft
- IATA code : LYN
- Download approach charts


LFLY - Lyon Bron

CURRENT METAR :
  • 231730Z AUTO 34010KT CAVOK 15/05 Q1028 NOSIG

EXPIRED METARs :
  • 231700Z AUTO 35009KT CAVOK 15/06 Q1028 NOSIG
  • 231630Z AUTO 33011KT CAVOK 16/06 Q1028 NOSIG
  • 231600Z AUTO 34009KT 310V040 CAVOK 17/07 Q1028 NOSIG
  • 231530Z AUTO 35010KT CAVOK 17/06 Q1028 NOSIG
  • 231500Z AUTO 35013KT CAVOK 17/06 Q1028 NOSIG

TAF TAF LFLY
Valid from the 23 at 18:00 until the 24 at 18:00 UTC


231700Z 2318/2418 35013KT CAVOK
TEMPO 2412/2418 36015G25KT
ATIS : +33 4 72 15 87 96
No reported NOTAMs for that airfield.
4 SIGMETs reported for the Marseille FIR (LFMM) :
 
SIGMET 3  cancelation
LFMM SIGMET 4 VALID 231610/240100 LFPW
LFMM MARSEILLE FIR/UIR CNL SIGMET 3 231900/240100=
SIGMET 3  CANCELED :
Volcanic ashes
LFMM SIGMET 3 VALID 231900/240100 LFPW
LFMM MARSEILLE FIR/UIR EXERCISE VOLCITA 2018 EXERCISE VA ERUPTION MT CAMPI LOC N4049 E01408 VA CLD FCST AT 2100Z S OF LINE N3900 E00530 - N4000 E00800 FL100/400 STNR EXERCISE EXERCISE EXERCISE=
SIGMET 1  cancelation
LFMM SIGMET 2 VALID 231535/240100 LFPW
LFMM MARSEILLE FIR/UIR CNL SIGMET 1 231900/240100=
SIGMET 1  CANCELED :
Volcanic ashes
LFMM SIGMET 1 VALID 231900/240100 LFPW
LFMM MARSEILLE FIR/UIR EXERCICE VOLCITA 2018 EXERCICE VA ERUPTION MT CAMPI FLEGREI LOC N4049 E01408 VA CLD FCST S OF LINE N3900 E00530 - N4000 E00800 FL100/400 EXERCICE EXERCICE EXERCICE=



MET'MAP, your aeronautical weather chart ! - Copyright ORBIFLY December 2007 - Disclaimer

ORBIFLY MET'MAP TEAM :

Programming & Development : Alexandra Zaïnal
Concept & Development : Baudouin d'Aumeries
Co-Development & Prog : Marc-Olivier Méhu
Technical & hardware support : Manuel Goepfert

Contact : metmap@orbifly.com




SOURCES & CREDITS :

   NOAA